Latest Weather Observations for Tasman Island

IDT60901

Issued at 11:51 am EDT Thursday 21 November 2019 (issued every 10 minutes, with the page automatically refreshed every 10 minutes)

About weather observations | Map of Hobart area stations | Latest observations for Hobart area | Other Formats
Station Details ID: 094155 Name: TASMAN ISLAND Lat: -43.24 Lon: 148.00 Height: 240.0 m
Data from the previous 72 hours. | See also: Recent months at Tasman Island
Date/Time
EDT
Temp
°C
App
Temp
°C
Dew
Point
°C
Rel
Hum
%
Delta-T
°C
Wind Press
QNH
hPa
Press
MSL
hPa
Rain since
9am
mm
Dir  Spd
km/h
Gust
km/h
Spd
kts
Gust
kts
21/11:30am 25.4 20.9 6.1 29 10.1 SW 19 26 10 14 996.0 995.9 0.0
21/11:00am 29.9 22.4 6.5 23 12.7 NNW 35 46 19 25 995.6 995.5 0.0
21/10:30am 29.0 22.1 6.4 24 12.1 N 32 43 17 23 996.1 996.0 0.0
21/10:00am - - - - - NNW 33 46 18 25 996.0 995.9 0.0
21/09:37am - - - - - NNW 28 46 15 25 996.2 996.1 0.0
21/09:30am - - - - - NNW 33 46 18 25 996.3 996.2 0.0
21/09:07am - - - - - NNW 28 46 15 25 996.3 996.2 0.0
21/09:00am - - - - - NNW 20 46 11 25 996.3 996.2 0.0
21/08:30am - - - - - NNW 13 46 7 25 996.0 995.9 0.0
21/08:00am - - - - - N 2 22 1 12 995.6 995.5 0.0
21/07:30am 22.8 20.1 0.6 23 10.3 N 4 41 2 22 996.0 995.9 0.0
21/07:00am 21.9 20.1 1.0 25 9.8 CALM 0 26 0 14 996.1 996.0 0.0
21/06:30am 20.8 18.9 0.6 26 9.2 CALM 0 19 0 10 996.7 996.6 0.0
21/06:00am 21.2 18.9 0.4 25 9.5 N 2 32 1 17 997.3 997.2 0.0
21/05:30am 21.0 17.9 0.2 25 9.4 N 6 46 3 25 997.6 997.5 0.0
21/05:00am 17.3 13.2 2.5 37 6.9 N 13 43 7 23 997.9 997.8 0.0
21/04:30am 18.8 15.8 1.8 32 7.8 N 7 43 4 23 998.3 998.2 0.0
21/04:00am 18.3 14.9 -0.5 28 8.3 N 7 46 4 25 998.4 998.3 0.0
21/03:30am 18.4 15.6 -0.4 28 8.2 N 4 41 2 22 999.2 999.1 0.0
21/03:00am 17.6 14.5 0.3 31 7.7 N 6 43 3 23 999.3 999.2 0.0
21/02:30am 15.2 12.4 3.4 45 5.4 N 7 52 4 28 1000.3 1000.2 0.0
21/02:00am 15.6 10.9 1.0 37 6.5 N 15 48 8 26 1002.0 1001.9 0.0
21/01:34am 15.1 7.8 2.6 43 5.7 N 30 48 16 26 1003.0 1002.9 0.0
21/01:30am 15.2 7.6 2.7 43 5.7 N 32 48 17 26 1003.2 1003.1 0.0
21/01:28am 15.7 8.1 0.7 36 6.6 N 30 48 16 26 1003.2 1003.1 0.0
21/01:00am 15.2 6.9 2.4 42 5.8 N 35 48 19 26 1003.8 1003.7 0.0
21/12:31am 15.1 8.2 2.6 43 5.7 N 28 48 15 26 1004.1 1004.1 0.0
21/12:30am 15.0 7.8 2.9 44 5.5 N 30 46 16 25 1004.1 1004.1 0.0
21/12:06am 15.0 8.2 3.2 45 5.4 N 28 46 15 25 1004.5 1004.5 0.0
21/12:00am 14.4 7.0 5.0 53 4.5 N 33 46 18 25 1004.6 1004.6 0.0
 
Date/Time
EDT
Temp
°C
App
Temp
°C
Dew
Point
°C
Rel
Hum
%
Delta-T
°C
Wind Press
QNH
hPa
Press
MSL
hPa
Rain since
9am
mm
Dir  Spd
km/h
Gust
km/h
Spd
kts
Gust
kts
20/11:30pm 15.4 7.0 3.9 46 5.4 N 37 48 20 26 1005.1 1005.1 0.0
20/11:00pm 15.8 7.8 3.6 44 5.7 N 35 48 19 26 1005.6 1005.6 0.0
20/10:30pm 15.3 7.9 3.8 46 5.4 N 32 48 17 26 1006.3 1006.2 0.0
20/10:21pm 14.7 8.5 6.0 56 4.2 N 28 48 15 26 1006.2 1006.1 0.0
20/10:00pm 15.1 9.8 5.0 51 4.8 N 22 46 12 25 1006.5 1006.4 0.0
20/09:43pm 14.9 8.7 6.0 55 4.3 N 28 46 15 25 1006.9 1006.8 0.0
20/09:30pm 14.3 6.7 7.4 63 3.4 N 37 48 20 26 1007.2 1007.1 0.0
20/09:00pm 13.1 7.5 8.6 74 2.3 N 28 39 15 21 1007.8 1007.8 0.0
20/08:30pm 14.8 7.7 6.6 58 4.0 N 33 43 18 23 1007.9 1007.9 0.0
20/08:00pm 14.5 7.1 6.8 60 3.8 N 35 44 19 24 1008.5 1008.5 0.0
20/07:30pm 13.3 5.6 8.8 74 2.3 N 39 44 21 24 1008.2 1008.2 0.0
20/07:00pm 12.1 4.8 10.2 88 1.0 N 39 48 21 26 1008.5 1008.5 0.0
20/06:30pm 11.7 5.1 10.1 90 0.8 N 35 46 19 25 1008.4 1008.4 0.0
20/06:00pm 12.7 9.0 9.3 80 1.7 NNE 19 39 10 21 1007.8 1007.8 0.0
20/05:58pm 12.7 9.4 9.5 81 1.6 NNE 17 39 9 21 1007.5 1007.4 0.0
20/05:30pm 13.0 8.7 9.4 79 1.9 NNE 22 30 12 16 1009.5 1009.5 0.0
20/05:00pm 12.9 8.2 9.4 79 1.8 NNE 24 37 13 20 1010.2 1010.1 0.0
20/04:30pm 13.0 6.7 9.1 77 2.0 N 32 43 17 23 1010.9 1010.8 0.0
20/04:00pm 12.4 4.8 9.1 80 1.7 N 39 48 21 26 1011.0 1010.9 0.0
20/03:30pm 12.0 4.8 9.2 83 1.4 N 37 48 20 26 1010.9 1010.8 0.0
20/03:00pm 12.5 5.0 9.3 81 1.6 N 39 46 21 25 1011.2 1011.2 0.0
20/02:30pm 13.4 6.3 9.5 77 2.0 NNE 37 46 20 25 1011.3 1011.3 0.0
20/02:00pm 14.0 7.5 10.2 78 2.0 NNE 35 46 19 25 1011.7 1011.7 0.0
20/01:30pm 12.7 5.3 9.7 82 1.5 N 39 48 21 26 1012.2 1012.2 0.0
20/01:00pm 13.0 6.4 10.0 82 1.6 N 35 46 19 25 1012.8 1012.8 0.0
20/12:30pm 13.4 7.2 10.0 80 1.8 NNE 33 46 18 25 1013.0 1013.0 0.0
20/12:00pm 13.3 7.1 10.1 81 1.7 NNE 33 44 18 24 1013.2 1013.2 0.0
20/11:30am 13.4 7.1 9.8 79 1.9 N 33 43 18 23 1013.8 1013.8 0.0
20/11:00am 12.7 6.0 9.5 81 1.6 N 35 48 19 26 1013.8 1013.8 0.0
20/10:30am 12.4 5.3 9.4 82 1.5 N 37 48 20 26 1013.5 1013.5 0.0
20/10:00am 12.1 4.3 8.2 77 1.9 N 39 48 21 26 1013.6 1013.6 0.0
20/09:30am 11.7 5.1 8.4 80 1.6 N 33 46 18 25 1014.1 1014.1 0.0
20/09:00am 11.3 4.6 8.0 80 1.6 NNE 33 44 18 24 1014.8 1014.8 0.0
20/08:30am 10.8 4.0 7.1 78 1.8 NNE 32 44 17 24 1014.7 1014.7 0.0
20/08:00am 9.8 3.2 6.2 78 1.7 NNE 30 37 16 20 1015.1 1015.1 0.0
20/07:30am 9.6 3.8 6.1 79 1.6 NNE 26 35 14 19 1015.4 1015.4 0.0
20/07:00am 9.2 3.7 5.9 80 1.5 NNE 24 33 13 18 1015.6 1015.6 0.0
20/06:30am 9.0 3.4 5.6 79 1.6 NNE 24 35 13 19 1015.2 1015.2 0.0
20/06:00am 8.7 4.8 5.4 80 1.5 NNE 15 28 8 15 1014.9 1014.9 0.0
20/05:30am 8.4 3.7 5.0 79 1.5 NNE 19 28 10 15 1014.9 1014.9 0.0
20/05:00am 8.0 3.9 4.6 79 1.5 NNE 15 22 8 12 1015.0 1015.0 0.0
20/04:30am 7.9 3.8 4.5 79 1.5 NNE 15 22 8 12 1015.1 1015.1 0.0
20/04:00am 7.8 4.1 4.4 79 1.5 NNE 13 19 7 10 1015.3 1015.3 0.0
20/03:30am 7.7 5.1 4.1 78 1.6 NNE 7 13 4 7 1015.3 1015.3 0.0
20/03:00am 7.5 5.0 3.7 77 1.6 NE 6 11 3 6 1015.4 1015.4 0.0
20/02:30am 7.7 5.9 3.7 76 1.7 E 2 4 1 2 1015.8 1015.8 0.0
20/02:00am 7.4 6.0 3.8 78 1.6 CALM 0 2 0 1 1016.0 1016.0 0.0
20/01:30am 7.1 4.6 3.5 78 1.5 SSW 6 9 3 5 1016.0 1016.0 0.0
20/01:00am 7.4 4.3 3.6 77 1.6 SSW 9 17 5 9 1016.3 1016.3 0.0
20/12:30am 7.7 3.9 4.1 78 1.6 SW 13 20 7 11 1016.5 1016.5 0.0
20/12:00am 7.6 3.8 4.0 78 1.6 SW 13 20 7 11 1016.6 1016.6 0.0
 
Date/Time
EDT
Temp
°C
App
Temp
°C
Dew
Point
°C
Rel
Hum
%
Delta-T
°C
Wind Press
QNH
hPa
Press
MSL
hPa
Rain since
9am
mm
Dir  Spd
km/h
Gust
km/h
Spd
kts
Gust
kts
19/11:30pm 7.8 3.7 4.4 79 1.5 SW 15 26 8 14 1016.8 1016.8 0.0
19/11:00pm 7.6 3.4 4.0 78 1.6 SSW 15 28 8 15 1016.4 1016.4 0.0
19/10:30pm 7.7 4.0 4.3 79 1.5 SSW 13 22 7 12 1016.2 1016.2 0.0
19/10:00pm 7.9 2.5 4.5 79 1.5 SSW 22 30 12 16 1015.9 1015.9 0.0
19/09:30pm 8.2 3.4 4.8 79 1.5 SSW 19 35 10 19 1015.5 1015.5 0.0
19/09:00pm 8.3 2.2 4.7 78 1.6 SW 26 37 14 20 1015.2 1015.2 0.0
19/08:30pm 8.4 2.9 4.0 74 1.9 SSW 22 44 12 24 1014.8 1014.8 0.0
19/08:00pm 8.7 0.5 2.9 67 2.5 SW 35 46 19 25 1014.2 1014.2 0.0
19/07:30pm 8.8 1.4 4.0 72 2.1 SW 32 48 17 26 1014.0 1014.0 0.0
19/07:00pm 8.9 1.0 4.1 72 2.1 SW 35 46 19 25 1013.7 1013.7 0.0
19/06:30pm 9.6 2.2 4.8 72 2.2 SW 33 46 18 25 1013.4 1013.4 0.0
19/06:00pm 10.2 3.0 4.8 69 2.5 SW 32 46 17 25 1013.3 1013.3 0.0
19/05:30pm 11.0 3.8 4.9 66 2.8 SW 32 46 17 25 1013.0 1013.0 0.0
19/05:05pm 9.6 3.0 4.4 70 2.3 SSW 28 48 15 26 1012.8 1012.8 0.0
19/05:00pm 9.5 2.1 3.9 68 2.5 SW 32 48 17 26 1012.7 1012.7 0.0
19/04:30pm 9.5 1.5 3.9 68 2.5 SW 35 48 19 26 1012.3 1012.3 0.0
19/04:00pm 9.5 1.6 4.1 69 2.4 SW 35 46 19 25 1011.9 1011.9 0.0
19/03:30pm 9.8 2.3 4.4 69 2.4 SSW 33 48 18 26 1011.9 1011.9 0.0
19/03:00pm 10.3 2.5 5.1 70 2.4 SW 35 46 19 25 1011.5 1011.5 0.0
19/02:30pm 10.1 2.3 5.1 71 2.3 SW 35 46 19 25 1011.3 1011.3 0.0
19/02:00pm 10.4 3.0 5.2 70 2.4 SW 33 48 18 26 1011.1 1011.1 0.0
19/01:37pm 11.0 4.7 5.7 70 2.5 SSW 28 46 15 25 1010.8 1010.7 0.0
19/01:30pm 10.6 3.2 5.2 69 2.5 SW 33 46 18 25 1010.8 1010.7 0.0
19/01:00pm 10.7 4.0 5.7 71 2.3 SSW 30 46 16 25 1010.7 1010.6 0.0
19/12:38pm 10.6 4.6 6.9 78 1.8 SW 28 46 15 25 1010.5 1010.4 0.0
19/12:30pm 10.4 3.5 6.5 77 1.9 SW 32 48 17 26 1010.4 1010.3 0.0
19/12:00pm 9.8 2.3 6.3 79 1.6 SW 35 46 19 25 1010.5 1010.4 0.0
19/11:31am 11.3 5.2 6.4 72 2.3 SW 28 46 15 25 1010.4 1010.3 0.0
19/11:30am 11.2 5.0 6.3 72 2.3 SW 28 44 15 24 1010.4 1010.3 0.0
19/11:00am 11.5 7.7 5.6 67 2.8 SW 15 37 8 20 1010.3 1010.2 0.0
19/10:30am 11.5 9.4 6.0 69 2.6 E 6 15 3 8 1010.1 1010.0 0.0
19/10:00am 11.3 8.7 6.0 70 2.5 WSW 9 24 5 13 1009.8 1009.8 0.0
19/09:30am 10.9 7.7 6.8 76 2.0 WSW 13 35 7 19 1009.5 1009.5 0.0
19/09:00am 10.5 6.5 6.5 76 1.9 SSW 17 41 9 22 1009.2 1009.2 0.0
19/08:30am 10.9 7.7 7.0 77 1.9 SW 13 33 7 18 1009.2 1009.2 0.0
19/08:00am 9.9 6.4 7.0 82 1.4 WSW 15 33 8 18 1008.7 1008.7 0.0
19/07:30am 9.7 7.2 8.0 89 0.8 WSW 11 32 6 17 1008.3 1008.3 0.0
19/07:00am 9.2 5.9 8.0 92 0.6 SSW 15 32 8 17 1007.9 1007.9 0.0
19/06:30am 9.2 6.2 7.8 91 0.7 SW 13 35 7 19 1007.4 1007.3 0.0
19/06:00am 8.9 5.9 7.7 92 0.6 SSW 13 33 7 18 1007.1 1007.0 0.0
19/05:30am 9.4 7.4 7.2 86 1.1 NNW 7 22 4 12 1006.9 1006.8 0.0
19/05:00am 9.2 7.2 7.3 88 0.9 NW 7 22 4 12 1006.5 1006.4 0.0
19/04:30am 9.1 6.6 8.0 93 0.5 WSW 11 28 6 15 1006.2 1006.1 0.0
19/04:00am 8.9 6.3 7.8 93 0.5 SW 11 32 6 17 1005.5 1005.5 0.0
19/03:30am 9.1 4.4 7.7 91 0.7 SW 22 46 12 25 1005.3 1005.3 0.0
19/03:00am 9.1 5.2 7.2 88 0.9 SW 17 41 9 22 1005.0 1005.0 0.0
19/02:30am 9.0 3.9 7.5 90 0.7 SW 24 44 13 24 1005.0 1005.0 0.0
19/02:09am 9.1 3.3 7.9 92 0.6 SW 28 46 15 25 1005.0 1005.0 0.0
19/02:00am 9.1 4.0 7.7 91 0.7 SSW 24 43 13 23 1005.0 1005.0 0.0
19/01:30am 9.2 3.4 7.8 91 0.7 SW 28 46 15 25 1005.1 1005.1 0.0
19/01:00am 9.1 4.1 7.9 92 0.6 SSW 24 43 13 23 1005.0 1005.0 0.0
19/12:30am 9.1 5.8 7.9 92 0.6 SSW 15 37 8 20 1005.0 1005.0 0.0
19/12:00am 9.2 5.1 7.8 91 0.7 WSW 19 43 10 23 1004.1 1004.1 0.0
 
Date/Time
EDT
Temp
°C
App
Temp
°C
Dew
Point
°C
Rel
Hum
%
Delta-T
°C
Wind Press
QNH
hPa
Press
MSL
hPa
Rain since
9am
mm
Dir  Spd
km/h
Gust
km/h
Spd
kts
Gust
kts
18/11:30pm 9.5 2.7 7.8 89 0.8 SW 33 48 18 26 1004.0 1003.9 0.0
18/11:00pm 9.8 3.1 8.1 89 0.8 SW 33 46 18 25 1004.5 1004.5 0.0
18/10:30pm 9.9 3.4 8.2 89 0.8 SW 32 46 17 25 1004.3 1004.3 0.0
18/10:00pm 10.2 4.1 8.1 87 1.0 SW 30 46 16 25 1003.8 1003.7 0.0
18/09:30pm 10.1 5.2 8.4 89 0.8 SW 24 44 13 24 1003.3 1003.2 0.0
18/09:00pm 10.1 4.5 8.9 92 0.6 SW 28 46 15 25 1003.0 1002.9 0.0
18/08:30pm 10.1 4.5 8.9 92 0.6 SSW 28 44 15 24 1003.0 1002.9 0.0
18/08:17pm 10.5 4.9 8.6 88 0.9 SW 28 46 15 25 1003.0 1002.9 0.0
18/08:00pm 13.0 10.7 7.5 69 2.7 SSE 9 30 5 16 1002.9 1002.8 0.0
18/07:30pm 13.4 9.9 7.2 66 3.1 WSW 15 43 8 23 1002.1 1002.0 0.0
18/07:00pm 13.7 10.2 7.0 64 3.3 WSW 15 41 8 22 1001.5 1001.4 0.0
18/06:30pm 14.2 10.9 6.6 60 3.7 SW 13 35 7 19 1000.8 1000.8 0.0
18/06:00pm 14.4 10.8 6.7 60 3.8 SW 15 44 8 24 1000.7 1000.7 0.0
18/05:30pm 14.6 11.0 6.7 59 3.9 SW 15 44 8 24 1000.7 1000.7 0.0
18/05:00pm 15.3 12.1 6.8 57 4.2 W 13 43 7 23 1000.8 1000.8 0.0
18/04:30pm 15.8 12.7 7.3 57 4.3 W 13 44 7 24 1000.9 1000.9 0.0
18/04:00pm 15.4 11.0 6.7 56 4.3 WSW 19 43 10 23 1000.9 1000.9 0.0
18/03:30pm 15.2 12.3 6.5 56 4.3 SSW 11 35 6 19 1000.9 1000.9 0.0
18/03:00pm 15.8 12.5 6.3 53 4.7 W 13 43 7 23 1000.8 1000.8 0.0
18/02:30pm 16.0 12.3 6.4 53 4.7 WSW 15 44 8 24 1001.1 1001.1 0.0
18/02:00pm 16.1 12.3 6.0 51 5.0 WNW 15 43 8 23 1001.2 1001.2 0.0
18/01:30pm 16.1 12.8 6.3 52 4.8 SW 13 41 7 22 1001.6 1001.5 0.0
18/01:00pm - - - - - SSW 13 39 7 21 1001.7 1001.6 0.0
18/12:30pm 15.1 11.4 6.1 55 4.4 WSW 15 41 8 22 1001.5 1001.4 0.0
18/12:00pm - - - - - SSW 13 41 7 22 1002.0 1001.9 0.0

Latest Capital City Observations: Canberra | Sydney | Melbourne | Brisbane | Adelaide | Perth | Hobart | Darwin

Other formats

Comma delimited format used in spreadsheet applications
http://www.bom.gov.au/fwo/IDT60901/IDT60901.95986.axf

JavaScript Object Notation format (JSON) in row-major order
http://www.bom.gov.au/fwo/IDT60901/IDT60901.95986.json

Data quality

Most of these data are generated automatically and are frequently updated. Quality checks on data are not normally performed. It is possible for incorrect values to appear. Refer to information at About Latest Weather Observations and please check the disclaimer before using these data.